createdAt,value
2023-03-29T00:01:12.896Z,960.54
2023-03-29T00:16:37.980Z,960.52
2023-03-29T00:31:39.750Z,960.57
2023-03-29T00:46:41.446Z,960.66
2023-03-29T01:01:43.153Z,960.57
2023-03-29T01:16:44.887Z,960.6
2023-03-29T01:31:46.673Z,960.55
2023-03-29T01:46:48.369Z,960.69
2023-03-29T02:01:50.089Z,960.7
2023-03-29T02:16:51.778Z,960.77
2023-03-29T02:31:53.442Z,960.85
2023-03-29T02:46:55.179Z,960.98
2023-03-29T03:01:57.091Z,961.11
2023-03-29T03:16:58.804Z,961.37
2023-03-29T03:32:00.494Z,961.55
2023-03-29T03:47:02.237Z,961.72
2023-03-29T04:02:03.878Z,961.92
2023-03-29T04:17:05.526Z,962.15
2023-03-29T04:32:07.255Z,962.43
2023-03-29T04:47:08.911Z,962.56
2023-03-29T05:02:10.578Z,962.69
2023-03-29T05:17:12.278Z,962.81
2023-03-29T05:32:13.946Z,962.87
2023-03-29T05:47:15.582Z,962.83
2023-03-29T06:02:17.312Z,962.88
2023-03-29T06:17:19.195Z,962.96
2023-03-29T06:32:20.897Z,963.06
2023-03-29T06:47:22.582Z,963.08
2023-03-29T07:02:24.372Z,963.16
2023-03-29T07:17:26.070Z,963.28
2023-03-29T07:32:27.876Z,963.3
2023-03-29T07:47:29.605Z,963.23
2023-03-29T08:02:31.293Z,963.24
2023-03-29T08:17:33.079Z,963.1
2023-03-29T08:32:34.800Z,963.03
2023-03-29T08:47:36.483Z,962.91
2023-03-29T09:02:38.205Z,962.82
2023-03-29T09:17:39.930Z,962.77
2023-03-29T09:32:41.753Z,962.71
2023-03-29T09:47:43.428Z,962.75
2023-03-29T10:02:45.200Z,962.62
2023-03-29T10:17:46.880Z,962.57
2023-03-29T10:32:48.603Z,962.44
2023-03-29T10:47:50.422Z,962.42
2023-03-29T11:02:52.163Z,962.4
2023-03-29T11:17:53.962Z,962.34
2023-03-29T11:32:55.728Z,962.33
2023-03-29T11:47:57.435Z,962.29
2023-03-29T12:02:59.160Z,962.15
2023-03-29T12:18:00.862Z,962.15
2023-03-29T12:33:02.565Z,962.21
2023-03-29T12:48:04.319Z,962.18
2023-03-29T13:03:06.041Z,962.18
2023-03-29T13:18:09.626Z,962.25
2023-03-29T13:33:12.653Z,962.37
2023-03-29T13:48:14.376Z,962.39
2023-03-29T14:03:16.142Z,962.5
2023-03-29T14:18:17.922Z,962.38
2023-03-29T14:33:19.599Z,962.41
2023-03-29T14:48:21.265Z,962.47
2023-03-29T15:03:23.061Z,962.38
2023-03-29T15:18:24.887Z,962.26
2023-03-29T15:33:26.615Z,962.12
2023-03-29T15:48:28.332Z,962.04
2023-03-29T16:03:29.982Z,961.85
2023-03-29T16:18:31.607Z,961.7
2023-03-29T16:33:33.257Z,961.36
2023-03-29T16:48:34.993Z,961.18
2023-03-29T17:03:36.645Z,961
2023-03-29T17:18:38.276Z,960.75
2023-03-29T17:33:39.907Z,960.39
2023-03-29T17:48:41.570Z,960.01
2023-03-29T18:03:43.248Z,959.73
2023-03-29T18:18:44.908Z,959.41
2023-03-29T18:33:46.686Z,959.05
2023-03-29T18:48:48.315Z,958.85
2023-03-29T19:03:50.040Z,958.4
2023-03-29T19:18:51.762Z,958.11
2023-03-29T19:33:53.399Z,957.79
2023-03-29T19:48:55.028Z,957.42
2023-03-29T20:03:56.687Z,957.19
2023-03-29T20:18:58.516Z,956.87
2023-03-29T20:34:00.185Z,956.57
2023-03-29T20:49:01.870Z,956.32
2023-03-29T21:04:03.528Z,956.1
2023-03-29T21:19:05.160Z,955.79
2023-03-29T21:34:06.819Z,955.5
2023-03-29T21:49:08.489Z,955.29
2023-03-29T22:04:10.321Z,955.02
2023-03-29T22:19:11.971Z,954.83
2023-03-29T22:34:13.606Z,954.54
2023-03-29T22:49:15.255Z,954.36
2023-03-29T23:04:16.921Z,954.09
2023-03-29T23:19:18.588Z,953.81
2023-03-29T23:34:20.230Z,953.55
2023-03-29T23:49:21.887Z,953.44
